createdAt,value
2019-02-06T00:00:26.256Z,38.20
2019-02-06T00:01:14.965Z,38.70
2019-02-06T00:02:14.963Z,38.40
2019-02-06T00:03:14.969Z,40.70
2019-02-06T00:04:15.622Z,41.80
2019-02-06T00:05:15.524Z,41.30
2019-02-06T00:06:14.969Z,36.90
2019-02-06T00:07:14.975Z,40.70
2019-02-06T00:08:15.036Z,37.30
2019-02-06T00:09:14.992Z,39.90
2019-02-06T00:10:15.037Z,35.60
2019-02-06T00:11:14.981Z,37.10
2019-02-06T00:12:14.982Z,37.10
2019-02-06T00:13:14.989Z,37.50
2019-02-06T00:14:15.001Z,38.20
2019-02-06T00:15:14.988Z,38.70
2019-02-06T00:16:15.017Z,37.20
2019-02-06T00:17:15.028Z,36.00
2019-02-06T00:18:14.996Z,35.40
2019-02-06T00:19:15.026Z,37.50
2019-02-06T00:20:15.028Z,39.60
2019-02-06T00:21:14.999Z,40.30
2019-02-06T00:22:15.009Z,33.70
2019-02-06T00:23:14.999Z,36.50
2019-02-06T00:24:15.009Z,35.30
2019-02-06T00:25:15.006Z,33.60
2019-02-06T00:26:15.012Z,33.90
2019-02-06T00:27:15.007Z,34.30
2019-02-06T00:28:15.001Z,34.80
2019-02-06T00:29:15.018Z,33.80
2019-02-06T00:30:15.012Z,36.30
2019-02-06T00:31:15.042Z,37.30
2019-02-06T00:32:15.015Z,37.20
2019-02-06T00:33:15.020Z,37.00
2019-02-06T00:34:15.016Z,34.80
2019-02-06T00:35:25.473Z,35.70
2019-02-06T00:36:15.020Z,34.00
2019-02-06T00:37:15.023Z,32.80
2019-02-06T00:38:15.022Z,32.40
2019-02-06T00:39:15.030Z,34.10
2019-02-06T00:40:15.032Z,33.50
2019-02-06T00:41:15.042Z,32.00
2019-02-06T00:42:15.033Z,36.10
2019-02-06T00:43:15.034Z,34.90
2019-02-06T00:44:15.033Z,36.50
2019-02-06T00:45:15.035Z,37.20
2019-02-06T00:46:15.047Z,38.10
2019-02-06T00:47:15.046Z,35.80
2019-02-06T00:48:15.044Z,39.70
2019-02-06T00:49:15.060Z,33.90
2019-02-06T00:50:15.043Z,37.50
2019-02-06T00:51:15.047Z,34.70
2019-02-06T00:52:15.058Z,33.60
2019-02-06T00:53:15.058Z,35.60
2019-02-06T00:54:15.060Z,35.40
2019-02-06T00:55:15.060Z,32.60
2019-02-06T00:56:15.059Z,35.90
2019-02-06T00:57:15.062Z,39.00
2019-02-06T00:58:15.058Z,35.60
2019-02-06T00:59:15.064Z,36.60
2019-02-06T01:00:15.720Z,37.20
2019-02-06T01:01:15.060Z,35.50
2019-02-06T01:02:15.071Z,35.90
2019-02-06T01:03:15.159Z,35.70
2019-02-06T01:04:15.068Z,37.60
2019-02-06T01:05:15.072Z,35.60
2019-02-06T01:06:15.079Z,37.00
2019-02-06T01:07:15.070Z,38.20
2019-02-06T01:08:15.077Z,33.10
2019-02-06T01:09:15.092Z,40.10
2019-02-06T01:10:15.071Z,37.10
2019-02-06T01:11:15.081Z,38.10
2019-02-06T01:12:15.077Z,38.30
2019-02-06T01:13:15.088Z,35.80
2019-02-06T01:14:15.086Z,36.70
2019-02-06T01:15:15.086Z,37.90
2019-02-06T01:16:15.083Z,35.50
2019-02-06T01:17:15.089Z,37.20
2019-02-06T01:18:15.084Z,37.60
2019-02-06T01:19:15.087Z,36.10
2019-02-06T01:20:15.116Z,40.10
2019-02-06T01:21:15.084Z,36.50
2019-02-06T01:22:15.094Z,34.50
2019-02-06T01:23:16.376Z,36.40
2019-02-06T01:24:15.107Z,34.40
2019-02-06T01:25:15.094Z,32.60
2019-02-06T01:26:15.094Z,35.20
2019-02-06T01:27:15.098Z,33.10
2019-02-06T01:28:15.100Z,35.20
2019-02-06T01:29:15.103Z,35.70
2019-02-06T01:30:15.101Z,35.90
2019-02-06T01:31:15.103Z,33.00
2019-02-06T01:32:15.121Z,31.10
2019-02-06T01:33:15.110Z,34.10
2019-02-06T01:34:15.106Z,32.90
2019-02-06T01:35:15.113Z,35.10
2019-02-06T01:36:15.113Z,33.60
2019-02-06T01:37:15.119Z,33.20
2019-02-06T01:38:15.118Z,32.30
2019-02-06T01:39:15.119Z,34.20
2019-02-06T01:40:15.118Z,35.60
2019-02-06T01:41:15.119Z,35.50
2019-02-06T01:42:15.123Z,32.10
2019-02-06T02:58:18.743Z,23.50
2019-02-06T02:59:18.718Z,24.00
2019-02-06T03:01:11.819Z,20.70
2019-02-06T03:02:11.799Z,22.00
2019-02-06T03:04:05.414Z,21.50
2019-02-06T03:05:05.394Z,23.40
2019-02-06T03:06:05.410Z,20.80
2019-02-06T03:07:05.395Z,19.90
2019-02-06T03:08:05.396Z,22.60
2019-02-06T03:09:05.401Z,22.40
2019-02-06T03:10:05.406Z,20.70
2019-02-06T03:11:05.404Z,22.90
2019-02-06T03:12:05.405Z,20.40
2019-02-06T03:13:05.408Z,20.50
2019-02-06T03:14:05.409Z,20.60
2019-02-06T03:15:05.407Z,21.50
2019-02-06T03:16:05.415Z,21.50
2019-02-06T03:17:05.411Z,21.70
2019-02-06T03:18:05.524Z,17.90
2019-02-06T03:19:05.416Z,20.70
2019-02-06T03:20:05.415Z,20.30
2019-02-06T03:21:05.417Z,18.90
2019-02-06T03:22:05.420Z,28.70
2019-02-06T03:23:05.419Z,33.00
2019-02-06T03:24:05.526Z,26.20
2019-02-06T03:25:05.419Z,25.70
2019-02-06T03:26:05.433Z,22.10
2019-02-06T03:27:05.431Z,30.60
2019-02-06T03:28:05.432Z,25.40
2019-02-06T03:29:05.430Z,23.90
2019-02-06T03:30:05.477Z,21.80
2019-02-06T03:31:05.444Z,21.70
2019-02-06T03:32:05.442Z,23.20
2019-02-06T03:33:05.437Z,22.30
2019-02-06T03:34:05.439Z,25.70
2019-02-06T03:35:05.448Z,23.10
2019-02-06T03:36:05.441Z,26.20
2019-02-06T03:37:05.440Z,22.20
2019-02-06T03:38:05.441Z,22.50
2019-02-06T03:39:05.449Z,25.20
2019-02-06T03:40:05.451Z,21.00
2019-02-06T03:41:05.449Z,20.50
2019-02-06T03:42:05.449Z,18.00
2019-02-06T03:43:05.451Z,21.80
2019-02-06T03:44:05.498Z,20.20
2019-02-06T03:45:05.448Z,19.10
2019-02-06T03:46:05.463Z,20.30
2019-02-06T03:47:05.460Z,20.60
2019-02-06T03:48:05.558Z,18.40
2019-02-06T03:49:05.461Z,19.70
2019-02-06T03:50:05.463Z,19.20
2019-02-06T03:51:05.466Z,19.40
2019-02-06T03:52:05.465Z,17.80
2019-02-06T03:53:05.467Z,19.20
2019-02-06T03:54:05.459Z,21.00
2019-02-06T03:55:05.464Z,20.70
2019-02-06T03:56:05.468Z,17.70
2019-02-06T03:57:05.471Z,18.30
2019-02-06T03:58:05.470Z,18.10
2019-02-06T03:59:05.477Z,19.70
2019-02-06T04:00:05.475Z,18.50
2019-02-06T04:01:05.473Z,20.30
2019-02-06T04:02:05.478Z,16.80
2019-02-06T04:03:05.480Z,17.10
2019-02-06T04:04:05.479Z,15.30
2019-02-06T04:05:05.478Z,15.30
2019-02-06T04:06:05.491Z,15.70
2019-02-06T04:07:05.503Z,16.70
2019-02-06T04:08:05.489Z,18.00
2019-02-06T04:09:05.515Z,15.50
2019-02-06T04:10:05.489Z,16.10
2019-02-06T04:11:05.493Z,16.20
2019-02-06T04:12:05.495Z,16.50
2019-02-06T04:13:05.495Z,16.80
2019-02-06T04:14:05.494Z,15.40
2019-02-06T04:15:05.499Z,13.60
2019-02-06T04:16:05.497Z,13.30
2019-02-06T04:17:05.501Z,14.30
2019-02-06T04:18:05.499Z,14.70
2019-02-06T04:19:05.643Z,14.60
2019-02-06T04:20:05.519Z,13.20
2019-02-06T04:21:05.593Z,15.50
2019-02-06T04:22:05.511Z,16.90
2019-02-06T04:23:05.509Z,14.80
2019-02-06T04:24:05.516Z,15.20
2019-02-06T04:25:05.512Z,16.20
2019-02-06T04:26:05.519Z,14.20
2019-02-06T04:27:05.520Z,13.80
2019-02-06T04:28:05.516Z,17.30
2019-02-06T04:29:05.514Z,14.50
2019-02-06T04:30:05.518Z,13.70
2019-02-06T04:31:05.522Z,12.70
2019-02-06T04:32:05.525Z,12.90
2019-02-06T04:33:05.696Z,12.70
2019-02-06T04:34:05.526Z,13.30
2019-02-06T04:35:05.527Z,12.90
2019-02-06T04:36:05.533Z,12.90
2019-02-06T04:37:06.892Z,12.80
2019-02-06T04:38:05.532Z,11.10
2019-02-06T04:39:05.533Z,12.40
2019-02-06T04:40:05.540Z,13.70
2019-02-06T04:41:05.539Z,14.40
2019-02-06T04:42:05.540Z,14.50
2019-02-06T04:43:05.540Z,13.30
2019-02-06T04:44:05.537Z,14.60
2019-02-06T04:45:05.546Z,12.90
2019-02-06T04:46:05.540Z,16.70
2019-02-06T04:47:05.546Z,13.50
2019-02-06T04:48:05.545Z,14.00
2019-02-06T04:49:05.569Z,13.20
2019-02-06T04:50:05.550Z,15.30
2019-02-06T04:51:05.551Z,11.90
2019-02-06T04:52:05.550Z,10.90
2019-02-06T04:53:05.550Z,10.60
2019-02-06T04:54:05.555Z,10.40
2019-02-06T04:55:05.564Z,14.00
2019-02-06T04:56:06.182Z,11.10
2019-02-06T04:57:05.557Z,12.40
2019-02-06T04:58:05.557Z,10.70
2019-02-06T04:59:05.576Z,11.50
2019-02-06T05:00:05.561Z,10.60
2019-02-06T05:01:05.584Z,12.60
2019-02-06T05:02:05.565Z,12.10
2019-02-06T05:03:05.564Z,11.60
2019-02-06T05:04:05.635Z,11.70
2019-02-06T05:05:05.622Z,10.90
2019-02-06T05:06:05.781Z,10.90
2019-02-06T05:07:05.573Z,12.60
2019-02-06T05:08:05.751Z,9.20
2019-02-06T05:09:05.711Z,12.10
2019-02-06T05:10:05.729Z,11.40
2019-02-06T05:11:05.572Z,10.40
2019-02-06T05:12:05.584Z,11.50
2019-02-06T05:13:05.574Z,13.00
2019-02-06T05:14:05.579Z,11.20
2019-02-06T05:15:05.585Z,10.90
2019-02-06T05:16:05.582Z,12.30
2019-02-06T05:17:05.587Z,12.50
2019-02-06T05:18:05.589Z,11.60
2019-02-06T05:19:05.600Z,12.40
2019-02-06T05:20:05.591Z,9.90
2019-02-06T05:21:05.599Z,11.50
2019-02-06T05:22:05.601Z,11.40
2019-02-06T05:23:05.591Z,13.90
2019-02-06T05:24:05.602Z,14.20
2019-02-06T05:25:05.602Z,12.10
2019-02-06T05:26:05.594Z,10.90
2019-02-06T05:27:05.597Z,11.40
2019-02-06T05:28:05.597Z,13.20
2019-02-06T05:29:05.601Z,11.20
2019-02-06T05:30:05.602Z,10.40
2019-02-06T05:31:05.606Z,12.80
2019-02-06T05:32:05.608Z,10.60
2019-02-06T05:33:05.605Z,11.70
2019-02-06T05:34:05.605Z,10.50
2019-02-06T05:35:05.608Z,10.40
2019-02-06T05:36:05.615Z,13.40
2019-02-06T05:37:05.622Z,16.00
2019-02-06T05:38:05.612Z,9.90
2019-02-06T05:39:05.607Z,12.30
2019-02-06T05:40:05.618Z,12.00
2019-02-06T05:41:05.705Z,10.00
2019-02-06T05:42:05.614Z,12.90
2019-02-06T05:43:05.625Z,12.40
2019-02-06T05:44:05.623Z,9.60
2019-02-06T05:45:05.620Z,12.00
2019-02-06T05:46:05.630Z,11.40
2019-02-06T05:47:05.622Z,12.10
2019-02-06T05:48:05.619Z,11.10
2019-02-06T05:49:05.614Z,10.60
2019-02-06T05:50:05.626Z,11.80
2019-02-06T05:51:05.630Z,9.90
2019-02-06T05:52:05.633Z,10.30
2019-02-06T05:53:05.636Z,10.00
2019-02-06T05:54:05.635Z,11.30
2019-02-06T05:55:05.626Z,12.50
2019-02-06T05:56:05.634Z,12.10
2019-02-06T05:57:05.637Z,12.20
2019-02-06T05:58:05.641Z,12.70
2019-02-06T05:59:05.667Z,12.50
2019-02-06T06:00:05.638Z,11.80
2019-02-06T06:01:05.659Z,13.60
2019-02-06T06:02:05.646Z,11.70
2019-02-06T06:03:05.647Z,11.90
2019-02-06T06:04:05.636Z,13.50
2019-02-06T06:05:05.642Z,10.70
2019-02-06T06:06:05.638Z,11.70
2019-02-06T06:07:05.650Z,11.30
2019-02-06T06:08:05.648Z,13.80
2019-02-06T06:09:05.651Z,10.70
2019-02-06T06:10:05.654Z,9.80
2019-02-06T06:11:05.662Z,12.60
2019-02-06T06:12:05.664Z,11.70
2019-02-06T06:13:05.654Z,12.20
2019-02-06T06:14:05.665Z,10.30
2019-02-06T06:15:05.662Z,10.40
2019-02-06T06:16:05.677Z,11.60
2019-02-06T06:17:05.660Z,11.30
2019-02-06T06:18:05.683Z,12.20
2019-02-06T06:19:05.665Z,12.20
2019-02-06T06:20:05.667Z,10.50
2019-02-06T06:21:05.663Z,15.90
2019-02-06T06:22:05.659Z,15.00
2019-02-06T06:23:05.667Z,13.80
2019-02-06T06:24:08.945Z,15.40
2019-02-06T06:25:05.679Z,12.60
2019-02-06T06:26:05.671Z,12.60
2019-02-06T06:27:05.675Z,12.60
2019-02-06T06:28:05.676Z,9.90
2019-02-06T06:29:05.686Z,11.20
2019-02-06T06:30:05.678Z,10.30
2019-02-06T06:31:05.679Z,11.80
2019-02-06T06:32:05.683Z,11.80
2019-02-06T06:33:05.682Z,12.50
2019-02-06T06:34:05.683Z,10.50
2019-02-06T06:35:05.786Z,9.80
2019-02-06T06:36:05.695Z,12.50
2019-02-06T06:37:05.688Z,12.70
2019-02-06T06:38:05.694Z,12.80
2019-02-06T06:39:05.714Z,12.40
2019-02-06T06:40:05.691Z,14.60
2019-02-06T06:41:05.690Z,13.80
2019-02-06T06:42:05.689Z,15.10
2019-02-06T06:43:05.691Z,11.80
2019-02-06T06:44:05.692Z,13.40
2019-02-06T06:45:05.694Z,11.20
2019-02-06T06:46:05.694Z,10.20
2019-02-06T06:47:05.705Z,10.20
2019-02-06T06:48:05.703Z,10.80
2019-02-06T06:49:05.710Z,12.90
2019-02-06T06:50:05.705Z,11.50
2019-02-06T06:51:05.736Z,12.00
2019-02-06T06:52:05.705Z,12.00
2019-02-06T06:53:05.716Z,15.30
2019-02-06T06:54:05.722Z,10.90
2019-02-06T06:55:05.720Z,12.80
2019-02-06T06:56:05.714Z,11.90
2019-02-06T06:57:05.711Z,12.50
2019-02-06T06:58:05.716Z,12.20
2019-02-06T06:59:05.844Z,11.40
2019-02-06T07:00:05.727Z,12.20
2019-02-06T07:01:05.715Z,13.10
2019-02-06T07:02:05.711Z,10.70
2019-02-06T07:03:05.726Z,12.40
2019-02-06T07:04:05.722Z,9.70
2019-02-06T07:05:05.851Z,12.00
2019-02-06T07:06:05.726Z,12.20
2019-02-06T07:07:05.726Z,12.00
2019-02-06T07:08:09.643Z,13.10
2019-02-06T07:09:05.726Z,15.00
2019-02-06T07:10:05.737Z,11.20
2019-02-06T07:11:05.735Z,11.60
2019-02-06T07:12:05.740Z,11.10
2019-02-06T07:13:05.746Z,16.20
2019-02-06T07:14:05.735Z,12.60
2019-02-06T07:15:05.740Z,11.20
2019-02-06T07:16:05.733Z,11.50
2019-02-06T07:17:05.734Z,11.20
2019-02-06T07:18:05.736Z,11.40
2019-02-06T07:19:05.740Z,17.20
2019-02-06T07:20:05.735Z,11.90
2019-02-06T07:21:05.744Z,14.50
2019-02-06T07:22:05.750Z,12.80
2019-02-06T07:23:05.752Z,10.90
2019-02-06T07:24:05.750Z,13.50
2019-02-06T07:25:05.758Z,13.40
2019-02-06T07:26:05.753Z,10.60
2019-02-06T07:27:05.757Z,14.30
2019-02-06T07:28:05.757Z,11.30
2019-02-06T07:29:05.759Z,14.00
2019-02-06T07:30:05.761Z,14.90
2019-02-06T07:31:05.766Z,12.90
2019-02-06T07:32:05.763Z,13.50
2019-02-06T07:33:05.763Z,14.50
2019-02-06T07:34:05.762Z,13.70
2019-02-06T07:35:05.758Z,14.80
2019-02-06T07:36:05.770Z,12.60
2019-02-06T07:37:05.768Z,13.40
2019-02-06T07:38:05.766Z,16.30
2019-02-06T07:39:05.772Z,14.10
2019-02-06T07:40:05.780Z,13.30
2019-02-06T07:41:05.781Z,12.80
2019-02-06T07:42:05.794Z,12.80
2019-02-06T07:43:05.775Z,11.10
2019-02-06T07:44:05.777Z,13.70
2019-02-06T07:45:05.784Z,14.60
2019-02-06T07:46:05.784Z,12.60
2019-02-06T07:47:05.787Z,12.60
2019-02-06T07:48:05.792Z,13.50
2019-02-06T07:49:05.796Z,14.50
2019-02-06T07:50:05.784Z,13.40
2019-02-06T07:51:05.790Z,13.90
2019-02-06T07:52:05.793Z,14.60
2019-02-06T07:53:05.800Z,15.20
2019-02-06T07:54:05.795Z,14.40
2019-02-06T07:55:05.800Z,16.50
2019-02-06T07:56:05.804Z,14.30
2019-02-06T07:57:05.815Z,15.20
2019-02-06T07:58:05.828Z,13.20
2019-02-06T07:59:05.813Z,14.30
2019-02-06T08:00:05.807Z,12.70
2019-02-06T08:01:05.815Z,15.00
2019-02-06T08:02:05.820Z,14.40
2019-02-06T08:03:05.813Z,12.60
2019-02-06T08:04:05.816Z,12.20
2019-02-06T08:05:05.817Z,12.80
2019-02-06T08:06:05.826Z,11.90
2019-02-06T08:07:05.825Z,13.70
2019-02-06T08:08:05.828Z,12.40
2019-02-06T08:09:05.835Z,12.20
2019-02-06T08:10:05.830Z,12.20
2019-02-06T08:11:05.837Z,13.80
2019-02-06T08:12:05.838Z,14.20
2019-02-06T08:13:05.840Z,12.50
2019-02-06T08:14:05.841Z,15.00
2019-02-06T08:15:05.851Z,13.80
2019-02-06T08:16:07.410Z,17.60
2019-02-06T08:17:05.851Z,11.10
2019-02-06T08:18:05.851Z,12.40
2019-02-06T08:19:05.853Z,14.60
2019-02-06T08:20:05.855Z,14.80
2019-02-06T08:21:05.857Z,10.10
2019-02-06T08:22:05.860Z,11.60
2019-02-06T08:23:05.868Z,13.40
2019-02-06T08:24:05.869Z,11.30
2019-02-06T08:25:05.866Z,13.20
2019-02-06T08:26:05.875Z,13.70
2019-02-06T08:27:05.874Z,11.80
2019-02-06T08:28:05.872Z,11.00
2019-02-06T08:29:05.882Z,12.80
2019-02-06T08:30:05.884Z,12.20
2019-02-06T08:31:05.881Z,11.30
2019-02-06T08:32:05.885Z,13.80
2019-02-06T08:33:05.889Z,13.00
2019-02-06T08:34:05.895Z,11.10
2019-02-06T08:35:05.889Z,11.40
2019-02-06T08:36:05.894Z,12.20
2019-02-06T08:37:05.902Z,11.30
2019-02-06T08:38:05.902Z,10.40
2019-02-06T08:39:05.897Z,9.80
2019-02-06T08:40:05.905Z,10.90
2019-02-06T08:41:05.907Z,13.70
2019-02-06T08:42:05.910Z,9.90
2019-02-06T08:43:05.913Z,10.90
2019-02-06T08:44:05.920Z,12.10
2019-02-06T08:45:05.919Z,10.70
2019-02-06T08:46:05.915Z,12.10
2019-02-06T08:47:05.943Z,13.20
2019-02-06T08:48:05.932Z,11.90
2019-02-06T08:49:05.925Z,11.20
2019-02-06T08:50:05.930Z,10.60
2019-02-06T08:51:05.936Z,9.80
2019-02-06T08:52:05.935Z,9.70
2019-02-06T08:53:05.953Z,9.10
2019-02-06T08:54:05.948Z,11.80
2019-02-06T08:55:05.946Z,10.60
2019-02-06T08:56:05.950Z,11.20
2019-02-06T08:57:05.955Z,11.70
2019-02-06T08:58:05.954Z,12.20
2019-02-06T08:59:05.959Z,10.90
2019-02-06T09:00:05.978Z,11.70
2019-02-06T09:01:05.961Z,11.50
2019-02-06T09:02:05.960Z,10.70
2019-02-06T09:03:05.969Z,11.20
2019-02-06T09:04:05.972Z,11.30
2019-02-06T09:05:07.679Z,11.00
2019-02-06T09:06:05.994Z,15.40
2019-02-06T09:07:05.978Z,11.40
2019-02-06T09:08:05.987Z,12.50
2019-02-06T09:09:05.994Z,13.70
2019-02-06T09:10:05.998Z,12.80
2019-02-06T09:11:06.006Z,12.20
2019-02-06T09:12:05.997Z,12.10
2019-02-06T09:13:06.000Z,15.60
2019-02-06T09:14:06.122Z,13.30
2019-02-06T09:15:06.012Z,11.80
2019-02-06T09:16:06.026Z,14.40
2019-02-06T09:17:06.016Z,12.60
2019-02-06T09:18:06.021Z,13.10
2019-02-06T09:19:06.022Z,10.40
2019-02-06T09:20:06.031Z,10.00
2019-02-06T09:21:06.032Z,13.00
2019-02-06T09:22:06.034Z,10.10
2019-02-06T09:23:06.047Z,14.40
2019-02-06T09:24:06.042Z,14.00
2019-02-06T09:25:06.048Z,13.30
2019-02-06T09:26:06.054Z,12.00
2019-02-06T09:27:06.061Z,12.40
2019-02-06T09:28:06.058Z,11.70
2019-02-06T09:29:06.064Z,12.00
2019-02-06T09:30:06.067Z,12.10
2019-02-06T09:31:06.075Z,12.50
2019-02-06T09:32:06.077Z,12.70
2019-02-06T09:33:06.092Z,14.50
2019-02-06T09:34:06.090Z,11.00
2019-02-06T09:35:06.090Z,10.40
2019-02-06T09:36:06.097Z,12.50
2019-02-06T09:37:06.108Z,12.30
2019-02-06T09:38:06.103Z,15.10
2019-02-06T09:39:11.720Z,13.20
2019-02-06T09:40:06.117Z,14.20
2019-02-06T09:41:06.124Z,13.90
2019-02-06T09:42:06.124Z,13.70
2019-02-06T09:43:06.128Z,14.50
2019-02-06T09:44:06.145Z,19.60
2019-02-06T09:45:06.144Z,11.50
2019-02-06T09:46:06.144Z,11.50
2019-02-06T09:47:06.148Z,14.50
2019-02-06T09:48:06.156Z,10.50
2019-02-06T09:49:06.161Z,14.80
2019-02-06T09:50:06.179Z,14.20
2019-02-06T09:51:06.179Z,12.80
2019-02-06T09:52:06.179Z,11.30
2019-02-06T09:53:06.184Z,12.90
2019-02-06T09:54:06.189Z,14.90
2019-02-06T09:55:06.195Z,14.60
2019-02-06T09:56:06.197Z,12.70
2019-02-06T09:57:06.207Z,14.20
2019-02-06T09:58:06.207Z,17.10
2019-02-06T09:59:06.216Z,13.80
2019-02-06T10:00:06.217Z,13.60
2019-02-06T10:01:06.223Z,10.50
2019-02-06T10:02:06.229Z,11.90
2019-02-06T10:03:06.243Z,10.60
2019-02-06T10:04:06.241Z,14.40
2019-02-06T10:05:06.243Z,13.90
2019-02-06T10:06:06.243Z,16.20
2019-02-06T10:07:06.253Z,13.80
2019-02-06T10:08:06.256Z,17.20
2019-02-06T10:09:06.254Z,12.80
2019-02-06T10:10:06.268Z,11.80
2019-02-06T10:11:06.269Z,11.80
2019-02-06T10:12:06.271Z,11.80
2019-02-06T10:13:06.437Z,13.70
2019-02-06T10:14:06.293Z,16.00
2019-02-06T10:15:06.291Z,10.90
2019-02-06T10:16:06.295Z,12.50
2019-02-06T10:17:06.305Z,11.70
2019-02-06T10:18:06.305Z,10.70
2019-02-06T10:19:06.302Z,11.80
2019-02-06T10:20:06.304Z,19.10
2019-02-06T10:21:06.308Z,13.10
2019-02-06T10:22:06.316Z,10.30
2019-02-06T10:23:06.319Z,10.30
2019-02-06T10:24:06.323Z,13.30
2019-02-06T10:25:06.333Z,9.20
2019-02-06T10:26:06.330Z,10.00
2019-02-06T10:27:06.337Z,10.80
2019-02-06T10:28:06.345Z,13.50
2019-02-06T10:29:06.338Z,13.80
2019-02-06T10:30:06.345Z,12.90
2019-02-06T10:31:06.356Z,15.80
2019-02-06T10:32:06.352Z,11.10
2019-02-06T10:33:06.361Z,13.00
2019-02-06T10:34:06.358Z,11.20
2019-02-06T10:35:06.359Z,16.00
2019-02-06T10:36:06.365Z,15.10
2019-02-06T10:37:06.373Z,10.70
2019-02-06T10:38:06.374Z,12.90
2019-02-06T10:39:06.379Z,15.90
2019-02-06T10:40:06.388Z,13.20
2019-02-06T10:41:06.384Z,12.10
2019-02-06T10:42:06.393Z,10.20
2019-02-06T10:43:06.400Z,15.10
2019-02-06T10:44:06.395Z,13.40
2019-02-06T10:45:06.397Z,13.20
2019-02-06T10:46:06.410Z,13.10
2019-02-06T10:47:06.403Z,10.90
2019-02-06T10:48:06.408Z,11.10
2019-02-06T10:49:06.414Z,11.20
2019-02-06T10:50:06.421Z,10.40
2019-02-06T10:51:06.427Z,13.20
2019-02-06T10:52:06.459Z,13.20
2019-02-06T10:53:06.433Z,11.30
2019-02-06T10:54:06.435Z,11.40
2019-02-06T10:55:06.438Z,11.40
2019-02-06T10:56:06.447Z,10.80
2019-02-06T10:57:06.574Z,11.00
2019-02-06T10:58:06.454Z,11.00
2019-02-06T10:59:06.452Z,11.10
2019-02-06T11:00:06.459Z,20.90
2019-02-06T11:01:06.471Z,15.80
2019-02-06T11:02:06.470Z,14.30
2019-02-06T11:03:06.484Z,13.20
2019-02-06T11:04:06.486Z,10.30
2019-02-06T11:05:06.482Z,10.50
2019-02-06T11:06:06.486Z,9.70
2019-02-06T11:07:08.232Z,12.10
2019-02-06T11:08:06.493Z,10.90
2019-02-06T11:09:06.517Z,12.20
2019-02-06T11:10:06.509Z,9.90
2019-02-06T11:11:06.502Z,10.20
2019-02-06T11:12:06.511Z,9.20
2019-02-06T11:13:06.525Z,13.60
2019-02-06T11:14:06.521Z,13.50
2019-02-06T11:15:06.519Z,17.20
2019-02-06T11:16:06.530Z,12.30
2019-02-06T11:17:06.535Z,12.20
2019-02-06T11:18:06.531Z,10.00
2019-02-06T11:19:06.535Z,9.90
2019-02-06T11:20:06.539Z,13.40
2019-02-06T11:21:06.542Z,11.30
2019-02-06T11:22:06.549Z,10.40
2019-02-06T11:23:06.556Z,11.00
2019-02-06T11:24:06.571Z,10.60
2019-02-06T11:25:06.571Z,10.90
2019-02-06T11:26:06.567Z,15.80
2019-02-06T11:27:06.572Z,10.60
2019-02-06T11:28:06.576Z,10.20
2019-02-06T11:29:06.581Z,12.30
2019-02-06T11:30:06.586Z,11.50
2019-02-06T11:31:06.584Z,14.10
2019-02-06T11:32:06.596Z,11.50
2019-02-06T11:33:06.590Z,14.30
2019-02-06T11:34:06.592Z,12.70
2019-02-06T11:35:06.605Z,11.40
2019-02-06T11:36:06.609Z,14.80
2019-02-06T11:37:06.612Z,11.00
2019-02-06T11:38:06.615Z,12.80
2019-02-06T11:39:06.617Z,9.70
2019-02-06T11:40:06.625Z,9.80
2019-02-06T11:41:06.631Z,18.60
2019-02-06T11:42:06.627Z,11.00
2019-02-06T11:43:06.649Z,9.50
2019-02-06T11:44:06.647Z,9.70
2019-02-06T11:45:06.647Z,11.40
2019-02-06T11:46:09.046Z,18.40
2019-02-06T11:47:06.657Z,11.00
2019-02-06T11:48:06.665Z,14.80
2019-02-06T11:49:06.668Z,13.60
2019-02-06T11:50:06.682Z,16.60
2019-02-06T11:51:06.671Z,17.30
2019-02-06T11:52:06.681Z,12.30
2019-02-06T11:53:06.686Z,16.10
2019-02-06T11:54:06.703Z,14.60
2019-02-06T11:55:08.659Z,15.80
2019-02-06T11:56:06.702Z,9.70
2019-02-06T11:57:06.707Z,14.70
2019-02-06T11:58:06.713Z,18.00
2019-02-06T11:59:06.709Z,17.50
2019-02-06T12:00:06.718Z,10.80
2019-02-06T12:01:06.724Z,11.40
2019-02-06T12:02:06.725Z,12.70
2019-02-06T12:03:06.736Z,11.80
2019-02-06T12:04:06.739Z,12.40
2019-02-06T12:05:06.744Z,12.00
2019-02-06T12:06:06.747Z,15.40
2019-02-06T12:07:06.752Z,13.60
2019-02-06T12:08:06.756Z,10.30
2019-02-06T12:09:06.762Z,10.20
2019-02-06T12:10:09.784Z,12.10
2019-02-06T12:11:06.770Z,10.60
2019-02-06T12:12:06.775Z,12.00
2019-02-06T12:13:06.777Z,14.70
2019-02-06T12:14:06.784Z,10.10
2019-02-06T12:15:06.791Z,12.20
2019-02-06T12:16:06.808Z,14.60
2019-02-06T12:17:06.810Z,12.10
2019-02-06T12:18:06.812Z,10.80
2019-02-06T12:19:06.806Z,11.00
2019-02-06T12:20:06.818Z,10.90
2019-02-06T12:21:06.816Z,15.00
2019-02-06T12:22:06.831Z,19.40
2019-02-06T12:23:06.844Z,13.10
2019-02-06T12:24:06.827Z,17.00
2019-02-06T12:25:06.839Z,10.90
2019-02-06T12:26:06.954Z,11.10
2019-02-06T12:27:06.860Z,14.00
2019-02-06T12:28:06.847Z,11.80
2019-02-06T12:29:06.859Z,12.60
2019-02-06T12:30:06.861Z,13.10
2019-02-06T12:31:06.910Z,11.40
2019-02-06T12:32:06.872Z,13.90
2019-02-06T12:33:06.873Z,8.00
2019-02-06T12:34:06.881Z,13.80
2019-02-06T12:35:06.905Z,12.40
2019-02-06T12:36:06.893Z,11.80
2019-02-06T12:37:06.893Z,12.40
2019-02-06T12:38:06.909Z,11.70
2019-02-06T12:39:06.908Z,13.70
2019-02-06T12:40:06.915Z,10.00
2019-02-06T12:41:06.913Z,14.90
2019-02-06T12:42:06.919Z,11.10
2019-02-06T12:43:06.921Z,12.10
2019-02-06T12:44:06.928Z,16.00
2019-02-06T12:45:06.937Z,11.30
2019-02-06T12:46:06.959Z,12.20
2019-02-06T12:47:06.945Z,14.10
2019-02-06T12:48:06.949Z,10.40
2019-02-06T12:49:06.965Z,13.90
2019-02-06T12:50:06.959Z,15.60
2019-02-06T12:51:06.972Z,10.90
2019-02-06T12:52:06.970Z,13.50
2019-02-06T12:53:06.976Z,10.40
2019-02-06T12:54:06.990Z,13.70
2019-02-06T12:55:06.985Z,11.40
2019-02-06T12:56:06.991Z,15.70
2019-02-06T12:57:06.996Z,12.30
2019-02-06T12:58:07.002Z,10.40
2019-02-06T12:59:07.010Z,10.60
2019-02-06T13:00:07.039Z,12.00
2019-02-06T13:01:07.038Z,10.10
2019-02-06T13:02:07.020Z,15.50
2019-02-06T13:03:07.025Z,18.10
2019-02-06T13:04:07.029Z,12.40
2019-02-06T13:05:07.034Z,9.60
2019-02-06T13:06:07.039Z,12.30
2019-02-06T13:07:07.047Z,11.80
2019-02-06T13:08:07.055Z,8.40
2019-02-06T13:09:07.059Z,14.20
2019-02-06T13:10:07.067Z,9.30
2019-02-06T13:11:07.070Z,11.70
2019-02-06T13:12:07.084Z,8.60
2019-02-06T13:13:07.076Z,10.10
2019-02-06T13:14:07.079Z,12.60
2019-02-06T13:15:07.087Z,9.50
2019-02-06T13:16:07.081Z,12.50
2019-02-06T13:17:07.097Z,11.20
2019-02-06T13:18:07.111Z,12.40
2019-02-06T13:19:07.106Z,10.20
2019-02-06T13:20:07.113Z,12.10
2019-02-06T13:21:07.117Z,10.40
2019-02-06T13:22:07.126Z,13.90
2019-02-06T13:23:07.127Z,12.60
2019-02-06T13:24:07.138Z,13.30
2019-02-06T13:25:07.139Z,13.30
2019-02-06T13:26:07.150Z,9.40
2019-02-06T13:27:07.148Z,11.90
2019-02-06T13:28:07.152Z,7.90
2019-02-06T13:29:07.168Z,10.80
2019-02-06T13:30:07.159Z,9.60
2019-02-06T13:31:07.186Z,9.40
2019-02-06T13:32:07.166Z,13.40
2019-02-06T13:33:07.183Z,13.80
2019-02-06T13:34:07.190Z,9.10
2019-02-06T13:35:07.193Z,12.00
2019-02-06T13:36:07.196Z,15.10
2019-02-06T13:37:07.195Z,10.60
2019-02-06T13:38:07.208Z,12.60
2019-02-06T13:39:07.210Z,7.30
2019-02-06T13:40:07.218Z,10.00
2019-02-06T13:41:07.217Z,7.90
2019-02-06T13:42:07.240Z,8.60
2019-02-06T13:43:07.235Z,11.20
2019-02-06T13:44:07.234Z,10.80
2019-02-06T13:45:07.242Z,8.70
2019-02-06T13:46:07.246Z,9.50
2019-02-06T13:47:07.257Z,9.00
2019-02-06T13:48:07.255Z,10.90
2019-02-06T13:49:07.254Z,14.10
2019-02-06T13:50:07.273Z,14.60
2019-02-06T13:51:15.862Z,9.40
2019-02-06T13:52:07.273Z,12.40
2019-02-06T13:53:07.279Z,11.80
2019-02-06T13:54:07.283Z,9.90
2019-02-06T13:55:07.294Z,9.40
2019-02-06T13:56:07.293Z,10.80
2019-02-06T13:57:07.303Z,13.20
2019-02-06T13:58:07.324Z,12.80
2019-02-06T13:59:07.500Z,14.90
2019-02-06T14:00:07.325Z,11.50
2019-02-06T14:01:07.322Z,11.50
2019-02-06T14:02:07.398Z,11.80
2019-02-06T14:03:07.332Z,14.50
2019-02-06T14:04:07.348Z,14.20
2019-02-06T14:05:07.343Z,12.10
2019-02-06T14:06:07.363Z,12.50
2019-02-06T14:07:07.353Z,11.40
2019-02-06T14:08:07.373Z,11.80
2019-02-06T14:09:07.367Z,15.50
2019-02-06T14:10:07.369Z,12.00
2019-02-06T14:11:07.377Z,14.10